CINOVEC Weather Reports


Display with metric or nautical units.
time (UTC)temp
F
wind
direction
speed
MPH
gust
MPH
rain 1hr
in
rain 24hr
in
rain mn
in
humidity
%
barometer
mb
20201024201746 43 240 10.0 0.0 0.00 0.00 0.00 93
20201024191741 45 210 9.0 0.0 0.00 0.00 0.00 87
20201024181738 45 210 13.0 0.0 0.00 0.00 0.00 87
20201024171741 45 220 12.0 0.0 0.00 0.00 0.00 87
20201024161745 48 240 9.0 0.0 0.00 0.00 0.00 81
20201024151741 52 240 9.0 0.0 0.00 0.00 0.00 71
20201024141740 54 240 14.0 21.0 0.00 0.00 0.00 66
20201024131742 54 240 12.0 18.0 0.00 0.00 0.00 66
20201024121741 52 250 12.0 0.0 0.00 0.00 0.00 76
20201024111741 52 260 13.0 20.0 0.00 0.00 0.00 76
20201024101739 50 250 7.0 0.0 0.00 0.00 0.00 87
20201024091739 50 260 8.0 0.0 0.00 0.00 0.00 87
20201024081739 48 280 10.0 18.0 0.00 0.00 0.00 93
20201024071744 46 280 7.0 0.0 0.00 0.00 0.00 99
20201024061741 48 280 9.0 0.0 0.00 0.00 0.00 93
20201024051740 48 290 8.0 18.0 0.00 0.00 0.00 99
20201024041739 48 290 10.0 18.0 0.00 0.00 0.00 99
20201024031727 48 280 9.0 20.0 0.00 0.00 0.00 99
20201024021825 48 290 12.0 21.0 0.00 0.00 0.00 99
20201024011849 50 270 12.0 21.0 0.00 0.00 0.00 93
20201024001854 50 270 8.0 0.0 0.00 0.00 0.00 99
20201023231851 50 280 9.0 16.0 0.00 0.00 0.00 99
20201023221851 50 280 9.0 18.0 0.00 0.00 0.00 99
20201023211848 50 260 10.0 0.0 0.00 0.00 0.00 99